Latest Coastal Weather Observations for Cape Borda

IDS60701

Issued at 4:51 pm CST Tuesday 30 August 2016 (issued every 10 minutes, with the page automatically refreshed every 10 minutes)

About coastal observations | Map of coastal stations | Coastal observations for SA | Marine services | Other Formats
Station Details ID: 022823 Name: CAPE BORDA Lat: -35.75 Lon: 136.60 Height: 158.0 m
Data from the previous 72 hours. | See also: Recent months at Cape Borda
Date/Time
CST
Temp
°C
Wind Pressure Rain since
9am
mm
Weather Cloud Vis
km
Sea
Height
m
Swell
Dir  Spd
kts
Gust
kts
hPa Trend Height
m
Period
s
Dir
30/04:30pm 15.6 NW 11 16 1008.9 - 0.0 - - - - - - -
30/04:00pm 14.7 NNW 9 13 1008.9 - 0.0 - - - - - - -
30/03:30pm 15.0 NNW 9 11 1008.8 - 0.0 - - - - - - -
30/03:00pm 15.3 N 10 13 1009.0 R 0.0 Distant precip. Mostly cloudy 20 1 3.5 7 SW
30/02:30pm 15.9 N 9 13 1008.8 - 0.0 - - - - - - -
30/02:00pm 15.7 N 9 13 1008.8 - 0.0 - - - - - - -
30/01:30pm 15.6 N 11 14 1008.9 - 0.0 - - - - - - -
30/01:00pm 15.0 N 10 15 1009.2 - 0.0 - - - - - - -
30/12:30pm 15.0 N 11 15 1009.6 - 0.0 - - - - - - -
30/12:00pm 14.2 N 11 14 1010.0 - 0.0 - - - - - - -
30/11:30am 14.8 N 15 20 1010.0 - 0.0 - - - - - - -
30/11:00am 14.1 N 11 16 1010.1 - 0.0 - - - - - - -
30/10:30am 13.9 N 13 18 1010.2 - 0.0 - - - - - - -
30/10:00am 13.8 N 11 16 1010.4 - 0.0 - - - - - - -
30/09:30am 13.7 N 12 17 1010.5 - 0.0 - - - - - - -
30/09:00am 13.7 NNE 10 16 1010.6 R 1.0 Haze Mostly cloudy 18 1 2.8 8 SW
30/08:30am 13.5 NNE 10 13 1010.4 - 1.0 - - - - - - -
30/08:00am 13.3 NNE 10 13 1010.1 - 1.0 - - - - - - -
30/07:30am 13.1 NE 9 14 1010.0 - 1.0 - - - - - - -
30/07:00am 12.9 NE 9 13 1009.8 - 1.0 - - - - - - -
30/06:30am 13.0 NE 10 14 1009.6 - 1.0 - - - - - - -
30/06:00am 13.2 NE 10 15 1009.4 - 1.0 - - - - - - -
30/05:30am 12.7 NNE 8 11 1009.3 - 1.0 - - - - - - -
30/05:00am 12.4 NNE 7 9 1009.4 - 1.0 - - - - - - -
30/04:30am 12.5 NNE 8 10 1009.3 - 1.0 - - - - - - -
30/04:00am 12.5 NNE 7 9 1009.1 - 1.0 - - - - - - -
30/03:30am 12.7 NNE 6 7 1009.2 - 1.0 - - - - - - -
30/03:00am 13.0 NNW 5 7 1009.8 - 1.0 - - - - - - -
30/02:30am 13.2 NW 5 6 1010.2 - 1.0 - - - - - - -
30/02:00am 13.3 WNW 5 8 1010.2 - 1.0 - - - - - - -
30/01:30am 13.1 SW 5 7 1010.2 - 1.0 - - - - - - -
30/01:00am 13.1 SW 6 8 1009.9 - 1.0 - - - - - - -
30/12:30am 13.9 N 8 13 1010.1 - 1.0 - - - - - - -
30/12:00am 13.9 N 12 17 1010.2 - 1.0 - - - - - - -
 
Date/Time
CST
Temp
°C
Wind Pressure Rain since
9am
mm
Weather Cloud Vis
km
Sea
Height
m
Swell
Dir  Spd
kts
Gust
kts
hPa Trend Height
m
Period
s
Dir
29/11:30pm 13.9 N 14 19 1010.0 - 1.0 - - - - - - -
29/11:00pm 14.0 N 12 17 1010.2 - 1.0 - - - - - - -
29/10:30pm 13.8 NE 13 18 1009.8 - 1.0 - - - - - - -
29/10:00pm 13.6 NE 15 20 1009.7 - 1.0 - - - - - - -
29/09:30pm 13.4 NE 17 23 1009.8 - 1.0 - - - - - - -
29/09:00pm 13.5 ENE 13 19 1009.8 - 1.0 - - - - - - -
29/08:30pm 14.1 NE 11 15 1009.9 - 1.0 - - - - - - -
29/08:00pm 13.9 ENE 8 9 1009.6 - 1.0 - - - - - - -
29/07:30pm 14.1 NNE 11 16 1010.0 - 0.4 - - - - - - -
29/07:00pm 13.7 NE 11 17 1010.0 - 0.4 - - - - - - -
29/06:30pm 14.1 NE 14 20 1009.7 - 0.0 - - - - - - -
29/06:00pm 14.1 ENE 16 23 1009.1 - 0.0 - - - - - - -
29/05:30pm 14.9 ENE 15 20 1008.9 - 0.0 - - - - - - -
29/05:00pm 15.3 NE 14 19 1008.8 - 0.0 - - - - - - -
29/04:30pm 15.7 ENE 15 19 1008.7 - 0.0 - - - - - - -
29/04:00pm 15.4 ENE 15 21 1008.7 - 0.0 - - - - - - -
29/03:30pm 15.8 ENE 17 22 1008.5 - 0.0 - - - - - - -
29/03:00pm 15.8 ENE 17 23 1008.5 F 0.0 Haze Mostly cloudy 18 2 2.8 6 SW
29/02:30pm 15.2 NE 18 25 1008.6 - 0.0 - - - - - - -
29/02:16pm 15.8 ENE 18 28 1008.7 - 0.0 - - - - - - -
29/02:00pm 15.5 ENE 18 26 1008.8 - 0.0 - - - - - - -
29/01:30pm 15.9 ENE 19 26 1009.0 - 0.0 - - - - - - -
29/01:00pm 14.4 NE 19 26 1009.5 - 0.0 - - - - - - -
29/12:30pm 15.1 NE 19 26 1009.9 - 0.0 - - - - - - -
29/12:07pm 14.5 NE 19 30 1010.2 - 0.0 - - - - - - -
29/12:00pm 15.0 NE 20 29 1010.3 - 0.0 - - - - - - -
29/11:30am 14.5 NE 20 32 1010.0 - 0.0 - - - - - - -
29/11:19am 14.5 NE 20 30 1010.2 - 0.0 - - - - - - -
29/11:00am 15.5 NE 20 27 1010.4 - 0.0 - - - - - - -
29/10:50am 14.5 NE 20 30 1010.5 - 0.0 - - - - - - -
29/10:30am 14.9 NE 20 28 1010.5 - 0.0 - - - - - - -
29/10:00am 14.2 ENE 21 28 1010.9 - 0.0 - - - - - - -
29/09:31am 13.7 ENE 20 30 1011.2 - 0.0 - - - - - - -
29/09:30am 13.7 ENE 21 30 1011.2 - 0.0 - - - - - - -
29/09:00am 13.1 ENE 20 27 1011.4 F 4.0 Distant precip. Mostly cloudy 18 2 2.8 6 SW
29/08:32am 12.7 NE 19 29 1011.4 - 4.0 - - - - - - -
29/08:30am 12.7 NE 20 29 1011.3 - 4.0 - - - - - - -
29/08:00am 12.5 NE 19 27 1011.4 - 4.0 - - - - - - -
29/07:30am 12.3 NE 19 26 1011.9 - 3.8 - - - - - - -
29/07:00am 12.8 NE 19 26 1011.8 - 2.2 - - - - - - -
29/06:32am 13.1 NE 18 28 1011.0 - 1.8 - - - - - - -
29/06:30am 13.1 NE 19 28 1011.0 - 1.8 - - - - - - -
29/06:00am 13.0 ENE 20 27 1010.8 - 1.8 - - - - - - -
29/05:30am 13.2 NE 20 29 1010.7 - 1.6 - - - - - - -
29/05:00am 12.6 ENE 19 26 1010.7 - 1.6 - - - - - - -
29/04:30am 12.6 ENE 19 26 1011.1 - 1.4 - - - - - - -
29/04:00am 12.5 ENE 17 23 1011.4 - 1.4 - - - - - - -
29/03:30am 12.4 ENE 17 25 1011.4 - 1.2 - - - - - - -
29/03:00am 12.0 ENE 18 24 1011.6 - 1.0 - - - - - - -
29/02:41am 13.1 NE 17 27 1011.9 - 0.6 - - - - - - -
29/02:30am 13.8 NE 17 25 1011.9 - 0.4 - - - - - - -
29/02:00am 13.8 NE 14 18 1012.5 - 0.4 - - - - - - -
29/01:30am 14.2 NE 12 16 1012.5 - 0.4 - - - - - - -
29/01:00am 14.3 NE 13 17 1012.4 - 0.4 - - - - - - -
29/12:30am 14.2 NE 14 22 1012.3 - 0.4 - - - - - - -
29/12:00am 13.3 NE 11 15 1012.5 - 0.4 - - - - - - -
 
Date/Time
CST
Temp
°C
Wind Pressure Rain since
9am
mm
Weather Cloud Vis
km
Sea
Height
m
Swell
Dir  Spd
kts
Gust
kts
hPa Trend Height
m
Period
s
Dir
28/11:30pm 13.7 NE 11 14 1012.2 - 0.2 - - - - - - -
28/11:00pm 14.0 NE 12 16 1012.5 - 0.2 - - - - - - -
28/10:30pm 13.6 NE 13 17 1012.5 - 0.2 - - - - - - -
28/10:00pm 14.8 NE 14 19 1012.6 - 0.0 - - - - - - -
28/09:30pm 15.2 NE 16 22 1012.1 - 0.0 - - - - - - -
28/09:00pm 15.6 ENE 17 24 1011.9 - 0.0 - - - - - - -
28/08:30pm 15.8 NE 18 25 1011.3 - 0.0 - - - - - - -
28/08:00pm 15.6 NE 18 25 1011.4 - 0.0 - - - - - - -
28/07:32pm 15.9 ENE 18 29 1011.4 - 0.0 - - - - - - -
28/07:30pm 15.8 ENE 18 25 1011.4 - 0.0 - - - - - - -
28/07:04pm 16.1 ENE 17 28 1011.6 - 0.0 - - - - - - -
28/07:00pm 16.0 ENE 17 24 1011.5 - 0.0 - - - - - - -
28/06:30pm 15.6 ENE 16 24 1011.5 - 0.0 - - - - - - -
28/06:00pm 15.7 ENE 18 26 1010.6 - 0.0 - - - - - - -
28/05:41pm 15.6 ENE 17 27 1010.1 - 0.0 - - - - - - -
28/05:30pm 15.5 ENE 18 25 1010.0 - 0.0 - - - - - - -
28/05:00pm 15.9 ENE 17 24 1009.9 - 0.0 - - - - - - -
28/04:39pm 15.8 ENE 17 27 1009.6 - 0.0 - - - - - - -
28/04:30pm 16.1 ENE 19 23 1009.4 - 0.0 - - - - - - -
28/04:00pm 16.5 ENE 18 25 1009.6 - 0.0 - - - - - - -
28/03:30pm 17.6 ENE 17 25 1009.6 - 0.0 - - - - - - -
28/03:00pm 16.5 ENE 16 24 1010.2 F 0.0 Fine Mostly cloudy 20 2 3.4 7 SW
28/02:30pm 17.4 NE 16 24 1010.8 - 0.0 - - - - - - -
28/02:00pm 16.9 ENE 17 23 1010.6 - 0.0 - - - - - - -
28/01:30pm 17.0 NE 18 25 1011.5 - 0.0 - - - - - - -
28/01:00pm 16.9 NE 18 24 1012.0 - 0.0 - - - - - - -
28/12:30pm 16.8 ENE 17 23 1012.6 - 0.0 - - - - - - -
28/12:00pm 15.9 ENE 17 25 1013.2 - 0.0 - - - - - - -
28/11:30am 15.3 ENE 17 25 1013.2 - 0.0 - - - - - - -
28/11:00am 15.5 NE 17 23 1013.5 - 0.0 - - - - - - -
28/10:30am 14.6 NE 16 22 1013.8 - 0.0 - - - - - - -
28/10:00am 14.8 ENE 15 22 1013.9 - 0.0 - - - - - - -
28/09:30am 13.8 ENE 14 22 1014.3 - 0.0 - - - - - - -
28/09:00am 14.8 ENE 15 21 1014.5 F 0.0 Fine Mostly cloudy 20 2 3.9 8 SW
28/08:30am 13.2 NE 14 18 1014.7 - 0.0 - - - - - - -
28/08:00am 13.2 NE 12 16 1014.8 - 0.0 - - - - - - -
28/07:30am 13.1 NE 13 19 1014.5 - 0.0 - - - - - - -
28/07:00am 12.8 ENE 12 17 1014.5 - 0.0 - - - - - - -
28/06:30am 12.7 ENE 12 15 1014.3 - 0.0 - - - - - - -
28/06:00am 12.7 ENE 12 15 1014.3 - 0.0 - - - - - - -
28/05:30am 12.8 ENE 12 15 1014.3 - 0.0 - - - - - - -
28/05:00am 12.9 NE 11 16 1014.2 - 0.0 - - - - - - -
28/04:30am 13.1 NE 11 16 1014.3 - 0.0 - - - - - - -
28/04:00am 13.0 NE 10 15 1014.5 - 0.0 - - - - - - -
28/03:30am 12.4 ENE 11 14 1014.6 - 0.0 - - - - - - -
28/03:00am 12.2 ENE 11 14 1014.9 - 0.0 - - - - - - -
28/02:30am 12.1 ENE 9 11 1015.1 - 0.0 - - - - - - -
28/02:00am 13.2 NE 8 11 1015.3 - 0.0 - - - - - - -
28/01:30am 13.5 NNE 9 14 1015.6 - 0.0 - - - - - - -
28/01:00am 13.3 NE 10 16 1015.9 - 0.0 - - - - - - -
28/12:30am 11.8 ENE 8 11 1016.1 - 0.0 - - - - - - -
28/12:00am 12.3 NE 7 10 1016.7 - 0.0 - - - - - - -
 
Date/Time
CST
Temp
°C
Wind Pressure Rain since
9am
mm
Weather Cloud Vis
km
Sea
Height
m
Swell
Dir  Spd
kts
Gust
kts
hPa Trend Height
m
Period
s
Dir
27/11:30pm 12.7 NE 7 11 1016.5 - 0.0 - - - - - - -
27/11:00pm 12.9 NNE 8 11 1016.5 - 0.0 - - - - - - -
27/10:30pm 13.0 NNE 8 12 1016.7 - 0.0 - - - - - - -
27/10:00pm 13.0 NNE 8 13 1016.6 - 0.0 - - - - - - -
27/09:30pm 13.3 NNE 9 13 1016.5 - 0.0 - - - - - - -
27/09:00pm 13.3 NNE 9 14 1016.8 - 0.0 - - - - - - -
27/08:30pm 13.3 NNE 8 11 1016.4 - 0.0 - - - - - - -
27/08:00pm 13.5 NNE 8 11 1016.5 - 0.0 - - - - - - -
27/07:30pm 13.3 NNE 8 13 1016.6 - 0.0 - - - - - - -
27/07:00pm 13.3 NNE 9 14 1016.3 - 0.0 - - - - - - -
27/06:30pm 13.4 N 9 13 1016.1 - 0.0 - - - - - - -
27/06:00pm 13.5 N 10 13 1016.0 - 0.0 - - - - - - -
27/05:30pm 13.6 N 9 13 1015.8 - 0.0 - - - - - - -
27/05:00pm 13.9 N 11 13 1015.8 - 0.0 - - - - - - -

Other Formats:

Comma delimited format used in spreadsheet applications
http://www.bom.gov.au/fwo/IDS60701/IDS60701.95805.axf

JavaScript Object Notation format (JSON) in row-major order
http://www.bom.gov.au/fwo/IDS60701/IDS60701.95805.json